sensor_id;sensor_type;location;lat;lon;timestamp;P1;durP1;ratioP1;P2;durP2;ratioP2
25319;SDS011;13256;49.012;8.610;2024-01-30T01:16:35;12.23;;;6.00;;
25319;SDS011;13256;49.012;8.610;2024-01-30T01:34:25;8.30;;;5.15;;
25319;SDS011;13256;49.012;8.610;2024-01-30T01:42:19;9.07;;;4.47;;
25319;SDS011;13256;49.012;8.610;2024-01-30T01:49:19;8.73;;;4.70;;
25319;SDS011;13256;49.012;8.610;2024-01-30T01:53:21;8.57;;;4.78;;
25319;SDS011;13256;49.012;8.610;2024-01-30T01:56:32;9.02;;;4.75;;
25319;SDS011;13256;49.012;8.610;2024-01-30T02:03:39;7.25;;;4.60;;
25319;SDS011;13256;49.012;8.610;2024-01-30T02:07:30;8.90;;;4.78;;
25319;SDS011;13256;49.012;8.610;2024-01-30T02:10:51;13.05;;;6.00;;
25319;SDS011;13256;49.012;8.610;2024-01-30T02:15:12;9.15;;;4.82;;
25319;SDS011;13256;49.012;8.610;2024-01-30T02:49:11;10.73;;;5.45;;
25319;SDS011;13256;49.012;8.610;2024-01-30T02:52:48;8.65;;;5.00;;
25319;SDS011;13256;49.012;8.610;2024-01-30T03:44:05;27.13;;;9.73;;
25319;SDS011;13256;49.012;8.610;2024-01-30T04:03:53;10.30;;;5.15;;
25319;SDS011;13256;49.012;8.610;2024-01-30T04:28:54;12.52;;;5.15;;
25319;SDS011;13256;49.012;8.610;2024-01-30T04:32:06;9.27;;;4.55;;
25319;SDS011;13256;49.012;8.610;2024-01-30T04:34:57;10.77;;;5.72;;
25319;SDS011;13256;49.012;8.610;2024-01-30T04:37:24;11.60;;;5.80;;
25319;SDS011;13256;49.012;8.610;2024-01-30T04:39:55;11.40;;;5.40;;
25319;SDS011;13256;49.012;8.610;2024-01-30T04:42:22;8.90;;;5.15;;
25319;SDS011;13256;49.012;8.610;2024-01-30T04:44:49;17.48;;;7.80;;
25319;SDS011;13256;49.012;8.610;2024-01-30T04:47:16;10.77;;;5.72;;
25319;SDS011;13256;49.012;8.610;2024-01-30T04:49:45;11.50;;;6.10;;
25319;SDS011;13256;49.012;8.610;2024-01-30T04:52:12;8.70;;;5.53;;
25319;SDS011;13256;49.012;8.610;2024-01-30T04:54:42;9.57;;;5.60;;
25319;SDS011;13256;49.012;8.610;2024-01-30T04:57:11;10.70;;;5.43;;
25319;SDS011;13256;49.012;8.610;2024-01-30T04:59:38;9.52;;;5.70;;
25319;SDS011;13256;49.012;8.610;2024-01-30T05:02:08;10.20;;;6.35;;
25319;SDS011;13256;49.012;8.610;2024-01-30T05:04:35;13.10;;;6.63;;
25319;SDS011;13256;49.012;8.610;2024-01-30T05:07:03;12.25;;;6.75;;
25319;SDS011;13256;49.012;8.610;2024-01-30T05:09:30;12.45;;;6.68;;
25319;SDS011;13256;49.012;8.610;2024-01-30T05:12:06;15.55;;;7.05;;
25319;SDS011;13256;49.012;8.610;2024-01-30T05:14:36;11.93;;;6.60;;
25319;SDS011;13256;49.012;8.610;2024-01-30T05:17:05;13.77;;;7.43;;
25319;SDS011;13256;49.012;8.610;2024-01-30T05:19:39;15.70;;;8.15;;
25319;SDS011;13256;49.012;8.610;2024-01-30T05:22:06;18.10;;;7.70;;
25319;SDS011;13256;49.012;8.610;2024-01-30T05:24:34;14.77;;;7.63;;
25319;SDS011;13256;49.012;8.610;2024-01-30T05:27:04;13.70;;;7.10;;
25319;SDS011;13256;49.012;8.610;2024-01-30T05:29:32;10.87;;;6.60;;
25319;SDS011;13256;49.012;8.610;2024-01-30T05:32:02;12.75;;;6.28;;
25319;SDS011;13256;49.012;8.610;2024-01-30T05:34:31;14.35;;;7.35;;
25319;SDS011;13256;49.012;8.610;2024-01-30T05:37:00;14.73;;;7.95;;
25319;SDS011;13256;49.012;8.610;2024-01-30T05:39:42;22.83;;;12.38;;
25319;SDS011;13256;49.012;8.610;2024-01-30T05:42:15;28.20;;;14.80;;
25319;SDS011;13256;49.012;8.610;2024-01-30T05:44:45;35.88;;;16.73;;
25319;SDS011;13256;49.012;8.610;2024-01-30T05:47:15;24.15;;;13.23;;
25319;SDS011;13256;49.012;8.610;2024-01-30T05:49:44;29.38;;;13.88;;
25319;SDS011;13256;49.012;8.610;2024-01-30T05:52:11;43.35;;;16.45;;
25319;SDS011;13256;49.012;8.610;2024-01-30T05:54:39;44.58;;;16.75;;
25319;SDS011;13256;49.012;8.610;2024-01-30T05:57:07;59.97;;;20.92;;
25319;SDS011;13256;49.012;8.610;2024-01-30T05:59:36;53.40;;;18.38;;
25319;SDS011;13256;49.012;8.610;2024-01-30T06:02:08;43.63;;;16.90;;
25319;SDS011;13256;49.012;8.610;2024-01-30T06:04:39;26.95;;;11.90;;
25319;SDS011;13256;49.012;8.610;2024-01-30T06:07:11;21.95;;;10.38;;
25319;SDS011;13256;49.012;8.610;2024-01-30T06:09:41;19.10;;;9.35;;
25319;SDS011;13256;49.012;8.610;2024-01-30T06:12:08;18.85;;;9.20;;
25319;SDS011;13256;49.012;8.610;2024-01-30T06:14:38;16.30;;;8.60;;
25319;SDS011;13256;49.012;8.610;2024-01-30T06:17:05;19.20;;;10.23;;
25319;SDS011;13256;49.012;8.610;2024-01-30T06:19:32;21.80;;;10.35;;
25319;SDS011;13256;49.012;8.610;2024-01-30T06:22:00;27.25;;;11.82;;
25319;SDS011;13256;49.012;8.610;2024-01-30T06:24:28;21.80;;;11.55;;
25319;SDS011;13256;49.012;8.610;2024-01-30T06:27:00;21.90;;;11.13;;
25319;SDS011;13256;49.012;8.610;2024-01-30T06:29:33;22.17;;;11.23;;
25319;SDS011;13256;49.012;8.610;2024-01-30T06:32:00;21.77;;;9.05;;
25319;SDS011;13256;49.012;8.610;2024-01-30T06:34:27;20.23;;;8.80;;
25319;SDS011;13256;49.012;8.610;2024-01-30T06:36:55;16.60;;;9.10;;
25319;SDS011;13256;49.012;8.610;2024-01-30T06:39:26;15.65;;;8.32;;
25319;SDS011;13256;49.012;8.610;2024-01-30T06:41:56;16.08;;;7.45;;
25319;SDS011;13256;49.012;8.610;2024-01-30T06:44:23;12.68;;;7.28;;
25319;SDS011;13256;49.012;8.610;2024-01-30T06:46:56;13.80;;;8.10;;
25319;SDS011;13256;49.012;8.610;2024-01-30T06:49:23;14.45;;;8.02;;
25319;SDS011;13256;49.012;8.610;2024-01-30T06:51:53;12.98;;;8.60;;
25319;SDS011;13256;49.012;8.610;2024-01-30T06:54:22;16.73;;;8.35;;
25319;SDS011;13256;49.012;8.610;2024-01-30T06:56:53;11.32;;;7.70;;
25319;SDS011;13256;49.012;8.610;2024-01-30T06:59:20;11.05;;;7.80;;
25319;SDS011;13256;49.012;8.610;2024-01-30T07:01:49;14.55;;;8.00;;
25319;SDS011;13256;49.012;8.610;2024-01-30T07:04:16;14.82;;;8.20;;
25319;SDS011;13256;49.012;8.610;2024-01-30T07:06:46;14.85;;;8.27;;
25319;SDS011;13256;49.012;8.610;2024-01-30T07:09:14;15.48;;;8.50;;
25319;SDS011;13256;49.012;8.610;2024-01-30T07:11:41;17.20;;;8.20;;
25319;SDS011;13256;49.012;8.610;2024-01-30T07:14:09;12.85;;;7.63;;
25319;SDS011;13256;49.012;8.610;2024-01-30T07:19:43;13.73;;;7.78;;
25319;SDS011;13256;49.012;8.610;2024-01-30T07:34:46;22.17;;;11.43;;
25319;SDS011;13256;49.012;8.610;2024-01-30T07:42:01;18.92;;;9.65;;
25319;SDS011;13256;49.012;8.610;2024-01-30T07:44:34;20.95;;;10.00;;
25319;SDS011;13256;49.012;8.610;2024-01-30T07:47:04;18.42;;;9.93;;
25319;SDS011;13256;49.012;8.610;2024-01-30T07:49:32;17.48;;;9.25;;
25319;SDS011;13256;49.012;8.610;2024-01-30T07:52:15;15.43;;;7.75;;
25319;SDS011;13256;49.012;8.610;2024-01-30T07:54:42;16.48;;;7.80;;
25319;SDS011;13256;49.012;8.610;2024-01-30T07:57:11;17.90;;;8.10;;
25319;SDS011;13256;49.012;8.610;2024-01-30T08:00:00;14.05;;;6.78;;
25319;SDS011;13256;49.012;8.610;2024-01-30T08:02:33;10.07;;;5.85;;
25319;SDS011;13256;49.012;8.610;2024-01-30T08:05:00;12.45;;;6.85;;
25319;SDS011;13256;49.012;8.610;2024-01-30T08:07:27;17.73;;;7.72;;
25319;SDS011;13256;49.012;8.610;2024-01-30T08:09:58;12.32;;;6.85;;
25319;SDS011;13256;49.012;8.610;2024-01-30T08:12:25;14.98;;;8.68;;
25319;SDS011;13256;49.012;8.610;2024-01-30T08:14:55;12.02;;;6.93;;
25319;SDS011;13256;49.012;8.610;2024-01-30T08:17:23;13.43;;;7.35;;
25319;SDS011;13256;49.012;8.610;2024-01-30T08:19:55;20.33;;;9.23;;
25319;SDS011;13256;49.012;8.610;2024-01-30T08:22:26;30.42;;;11.45;;
25319;SDS011;13256;49.012;8.610;2024-01-30T08:24:53;30.73;;;14.05;;
25319;SDS011;13256;49.012;8.610;2024-01-30T08:27:24;25.48;;;13.88;;
25319;SDS011;13256;49.012;8.610;2024-01-30T08:29:52;28.40;;;9.02;;
25319;SDS011;13256;49.012;8.610;2024-01-30T08:32:19;32.50;;;12.05;;
25319;SDS011;13256;49.012;8.610;2024-01-30T08:34:47;31.63;;;14.77;;
25319;SDS011;13256;49.012;8.610;2024-01-30T08:37:18;18.05;;;9.90;;
25319;SDS011;13256;49.012;8.610;2024-01-30T08:39:45;19.30;;;9.10;;
25319;SDS011;13256;49.012;8.610;2024-01-30T08:42:16;20.48;;;9.40;;
25319;SDS011;13256;49.012;8.610;2024-01-30T08:44:49;14.95;;;7.95;;
25319;SDS011;13256;49.012;8.610;2024-01-30T08:47:21;16.20;;;7.88;;
25319;SDS011;13256;49.012;8.610;2024-01-30T08:49:51;11.02;;;7.25;;
25319;SDS011;13256;49.012;8.610;2024-01-30T08:52:25;18.38;;;9.50;;
25319;SDS011;13256;49.012;8.610;2024-01-30T08:54:54;19.73;;;9.85;;
25319;SDS011;13256;49.012;8.610;2024-01-30T08:57:29;15.18;;;8.63;;
25319;SDS011;13256;49.012;8.610;2024-01-30T08:59:57;17.80;;;9.48;;
25319;SDS011;13256;49.012;8.610;2024-01-30T09:02:26;69.30;;;32.35;;
25319;SDS011;13256;49.012;8.610;2024-01-30T09:04:54;20.40;;;9.65;;
25319;SDS011;13256;49.012;8.610;2024-01-30T09:07:23;19.23;;;9.85;;
25319;SDS011;13256;49.012;8.610;2024-01-30T09:09:50;13.25;;;7.88;;
25319;SDS011;13256;49.012;8.610;2024-01-30T09:14:50;9.55;;;5.72;;
25319;SDS011;13256;49.012;8.610;2024-01-30T09:17:18;11.77;;;6.30;;
25319;SDS011;13256;49.012;8.610;2024-01-30T09:19:48;9.07;;;5.70;;
25319;SDS011;13256;49.012;8.610;2024-01-30T09:22:22;13.60;;;7.25;;
25319;SDS011;13256;49.012;8.610;2024-01-30T09:24:50;18.13;;;7.50;;
25319;SDS011;13256;49.012;8.610;2024-01-30T09:27:18;13.63;;;7.53;;
25319;SDS011;13256;49.012;8.610;2024-01-30T09:29:46;18.85;;;7.55;;
25319;SDS011;13256;49.012;8.610;2024-01-30T09:32:16;22.77;;;11.07;;
25319;SDS011;13256;49.012;8.610;2024-01-30T09:34:46;26.83;;;13.73;;
25319;SDS011;13256;49.012;8.610;2024-01-30T09:37:14;27.67;;;13.80;;
25319;SDS011;13256;49.012;8.610;2024-01-30T09:39:47;26.08;;;12.25;;
25319;SDS011;13256;49.012;8.610;2024-01-30T09:42:21;23.35;;;11.73;;
25319;SDS011;13256;49.012;8.610;2024-01-30T09:44:51;19.65;;;10.85;;
25319;SDS011;13256;49.012;8.610;2024-01-30T09:47:20;24.67;;;12.48;;
25319;SDS011;13256;49.012;8.610;2024-01-30T09:49:47;32.88;;;14.07;;
25319;SDS011;13256;49.012;8.610;2024-01-30T09:52:16;30.33;;;14.55;;
25319;SDS011;13256;49.012;8.610;2024-01-30T09:54:47;20.85;;;10.98;;
25319;SDS011;13256;49.012;8.610;2024-01-30T09:57:18;28.88;;;13.60;;
25319;SDS011;13256;49.012;8.610;2024-01-30T09:59:48;19.33;;;10.25;;
25319;SDS011;13256;49.012;8.610;2024-01-30T10:02:20;18.23;;;9.65;;
25319;SDS011;13256;49.012;8.610;2024-01-30T10:04:50;24.27;;;10.57;;
25319;SDS011;13256;49.012;8.610;2024-01-30T10:07:19;16.30;;;6.97;;
25319;SDS011;13256;49.012;8.610;2024-01-30T10:09:46;16.38;;;8.32;;
25319;SDS011;13256;49.012;8.610;2024-01-30T10:12:13;13.30;;;7.05;;
25319;SDS011;13256;49.012;8.610;2024-01-30T10:14:44;17.17;;;8.20;;
25319;SDS011;13256;49.012;8.610;2024-01-30T10:17:13;13.27;;;7.00;;
25319;SDS011;13256;49.012;8.610;2024-01-30T10:19:55;14.02;;;5.10;;
25319;SDS011;13256;49.012;8.610;2024-01-30T10:22:26;9.15;;;5.50;;
25319;SDS011;13256;49.012;8.610;2024-01-30T10:24:53;9.18;;;5.50;;
25319;SDS011;13256;49.012;8.610;2024-01-30T10:27:25;8.55;;;5.35;;
25319;SDS011;13256;49.012;8.610;2024-01-30T10:29:56;10.32;;;5.43;;
25319;SDS011;13256;49.012;8.610;2024-01-30T10:32:23;10.65;;;6.15;;
25319;SDS011;13256;49.012;8.610;2024-01-30T10:34:53;12.52;;;6.32;;
25319;SDS011;13256;49.012;8.610;2024-01-30T10:37:24;12.35;;;6.13;;
25319;SDS011;13256;49.012;8.610;2024-01-30T10:39:53;11.43;;;5.55;;
25319;SDS011;13256;49.012;8.610;2024-01-30T10:42:25;11.68;;;5.35;;
25319;SDS011;13256;49.012;8.610;2024-01-30T10:47:27;10.82;;;5.63;;
25319;SDS011;13256;49.012;8.610;2024-01-30T10:49:57;9.63;;;4.85;;
25319;SDS011;13256;49.012;8.610;2024-01-30T10:52:27;12.55;;;5.63;;
25319;SDS011;13256;49.012;8.610;2024-01-30T10:54:56;11.63;;;5.50;;
25319;SDS011;13256;49.012;8.610;2024-01-30T10:57:27;12.18;;;5.90;;
25319;SDS011;13256;49.012;8.610;2024-01-30T10:59:58;9.05;;;5.28;;
25319;SDS011;13256;49.012;8.610;2024-01-30T11:02:31;10.20;;;5.78;;
25319;SDS011;13256;49.012;8.610;2024-01-30T11:05:00;14.32;;;8.35;;
25319;SDS011;13256;49.012;8.610;2024-01-30T11:07:30;22.50;;;12.38;;
25319;SDS011;13256;49.012;8.610;2024-01-30T11:10:00;21.70;;;11.68;;
25319;SDS011;13256;49.012;8.610;2024-01-30T11:12:31;12.37;;;8.10;;
25319;SDS011;13256;49.012;8.610;2024-01-30T11:15:08;16.35;;;9.65;;
25319;SDS011;13256;49.012;8.610;2024-01-30T11:17:44;17.80;;;10.82;;
25319;SDS011;13256;49.012;8.610;2024-01-30T11:20:15;15.75;;;10.05;;
25319;SDS011;13256;49.012;8.610;2024-01-30T11:22:47;16.98;;;9.30;;
25319;SDS011;13256;49.012;8.610;2024-01-30T11:25:19;16.02;;;9.05;;
25319;SDS011;13256;49.012;8.610;2024-01-30T11:27:50;16.20;;;8.75;;
25319;SDS011;13256;49.012;8.610;2024-01-30T11:30:22;13.90;;;8.45;;
25319;SDS011;13256;49.012;8.610;2024-01-30T11:33:05;12.02;;;7.43;;
25319;SDS011;13256;49.012;8.610;2024-01-30T11:35:43;11.68;;;7.22;;
25319;SDS011;13256;49.012;8.610;2024-01-30T11:38:14;12.23;;;6.68;;
25319;SDS011;13256;49.012;8.610;2024-01-30T11:40:43;31.42;;;14.77;;
25319;SDS011;13256;49.012;8.610;2024-01-30T11:43:16;12.73;;;7.25;;
25319;SDS011;13256;49.012;8.610;2024-01-30T11:45:46;9.35;;;5.80;;
25319;SDS011;13256;49.012;8.610;2024-01-30T11:48:15;14.18;;;5.38;;
25319;SDS011;13256;49.012;8.610;2024-01-30T11:50:44;13.25;;;5.32;;
25319;SDS011;13256;49.012;8.610;2024-01-30T11:53:15;5.97;;;4.03;;
25319;SDS011;13256;49.012;8.610;2024-01-30T11:55:49;8.93;;;3.83;;
25319;SDS011;13256;49.012;8.610;2024-01-30T12:00:55;8.57;;;4.32;;
25319;SDS011;13256;49.012;8.610;2024-01-30T12:03:27;12.60;;;7.13;;
25319;SDS011;13256;49.012;8.610;2024-01-30T12:05:57;11.65;;;6.93;;
25319;SDS011;13256;49.012;8.610;2024-01-30T12:08:28;12.07;;;6.43;;
25319;SDS011;13256;49.012;8.610;2024-01-30T12:10:57;13.25;;;6.55;;
25319;SDS011;13256;49.012;8.610;2024-01-30T12:13:25;10.13;;;5.72;;
25319;SDS011;13256;49.012;8.610;2024-01-30T12:15:58;9.73;;;5.35;;
25319;SDS011;13256;49.012;8.610;2024-01-30T12:18:25;10.15;;;4.88;;
25319;SDS011;13256;49.012;8.610;2024-01-30T12:20:59;11.63;;;6.85;;
25319;SDS011;13256;49.012;8.610;2024-01-30T12:23:27;13.90;;;6.93;;
25319;SDS011;13256;49.012;8.610;2024-01-30T12:25:55;20.48;;;10.10;;
25319;SDS011;13256;49.012;8.610;2024-01-30T12:28:25;15.60;;;8.95;;
25319;SDS011;13256;49.012;8.610;2024-01-30T12:31:09;14.82;;;7.30;;
25319;SDS011;13256;49.012;8.610;2024-01-30T12:34:00;11.45;;;6.43;;
25319;SDS011;13256;49.012;8.610;2024-01-30T12:36:59;15.65;;;6.88;;
25319;SDS011;13256;49.012;8.610;2024-01-30T12:39:26;13.35;;;6.25;;
25319;SDS011;13256;49.012;8.610;2024-01-30T12:41:56;11.45;;;6.78;;
25319;SDS011;13256;49.012;8.610;2024-01-30T12:47:17;12.15;;;5.45;;
25319;SDS011;13256;49.012;8.610;2024-01-30T12:49:47;11.95;;;5.63;;
25319;SDS011;13256;49.012;8.610;2024-01-30T12:52:18;10.18;;;5.28;;
25319;SDS011;13256;49.012;8.610;2024-01-30T12:57:45;11.38;;;5.53;;
25319;SDS011;13256;49.012;8.610;2024-01-30T13:00:14;12.93;;;5.97;;
25319;SDS011;13256;49.012;8.610;2024-01-30T13:02:43;10.80;;;5.60;;
25319;SDS011;13256;49.012;8.610;2024-01-30T13:05:12;13.77;;;5.88;;
25319;SDS011;13256;49.012;8.610;2024-01-30T13:07:40;10.65;;;5.80;;
25319;SDS011;13256;49.012;8.610;2024-01-30T13:10:07;7.82;;;5.28;;
25319;SDS011;13256;49.012;8.610;2024-01-30T13:12:37;10.95;;;5.47;;
25319;SDS011;13256;49.012;8.610;2024-01-30T13:15:07;13.38;;;6.35;;
25319;SDS011;13256;49.012;8.610;2024-01-30T13:17:37;14.57;;;6.63;;
25319;SDS011;13256;49.012;8.610;2024-01-30T13:20:09;13.85;;;5.50;;
25319;SDS011;13256;49.012;8.610;2024-01-30T13:22:44;10.15;;;5.70;;
25319;SDS011;13256;49.012;8.610;2024-01-30T13:25:22;12.13;;;5.47;;
25319;SDS011;13256;49.012;8.610;2024-01-30T13:27:49;10.93;;;5.72;;
25319;SDS011;13256;49.012;8.610;2024-01-30T13:30:23;13.13;;;6.05;;
25319;SDS011;13256;49.012;8.610;2024-01-30T13:32:50;15.57;;;5.97;;
25319;SDS011;13256;49.012;8.610;2024-01-30T13:38:22;10.02;;;5.70;;
25319;SDS011;13256;49.012;8.610;2024-01-30T13:40:52;12.68;;;6.57;;
25319;SDS011;13256;49.012;8.610;2024-01-30T13:43:23;10.32;;;5.47;;
25319;SDS011;13256;49.012;8.610;2024-01-30T13:45:51;13.10;;;5.90;;
25319;SDS011;13256;49.012;8.610;2024-01-30T13:51:47;12.32;;;6.80;;
25319;SDS011;13256;49.012;8.610;2024-01-30T13:54:21;13.30;;;6.32;;
25319;SDS011;13256;49.012;8.610;2024-01-30T13:56:48;12.13;;;6.47;;
25319;SDS011;13256;49.012;8.610;2024-01-30T13:59:24;11.77;;;6.63;;
25319;SDS011;13256;49.012;8.610;2024-01-30T14:01:52;9.55;;;5.90;;
25319;SDS011;13256;49.012;8.610;2024-01-30T14:04:23;9.68;;;5.85;;
25319;SDS011;13256;49.012;8.610;2024-01-30T14:06:52;13.18;;;6.38;;
25319;SDS011;13256;49.012;8.610;2024-01-30T14:09:30;11.82;;;6.60;;
25319;SDS011;13256;49.012;8.610;2024-01-30T14:12:04;10.50;;;6.22;;
25319;SDS011;13256;49.012;8.610;2024-01-30T14:14:31;13.98;;;6.13;;
25319;SDS011;13256;49.012;8.610;2024-01-30T14:17:01;11.93;;;5.95;;
25319;SDS011;13256;49.012;8.610;2024-01-30T14:19:28;13.30;;;6.20;;
25319;SDS011;13256;49.012;8.610;2024-01-30T14:21:55;12.73;;;5.85;;
25319;SDS011;13256;49.012;8.610;2024-01-30T14:24:26;9.70;;;6.43;;
25319;SDS011;13256;49.012;8.610;2024-01-30T14:26:54;12.40;;;6.85;;
25319;SDS011;13256;49.012;8.610;2024-01-30T14:29:24;12.80;;;7.35;;
25319;SDS011;13256;49.012;8.610;2024-01-30T14:31:51;11.02;;;6.43;;
25319;SDS011;13256;49.012;8.610;2024-01-30T14:34:19;11.23;;;6.35;;
25319;SDS011;13256;49.012;8.610;2024-01-30T14:36:46;11.60;;;5.97;;
25319;SDS011;13256;49.012;8.610;2024-01-30T14:39:17;12.98;;;6.38;;
25319;SDS011;13256;49.012;8.610;2024-01-30T14:41:44;11.30;;;6.78;;
25319;SDS011;13256;49.012;8.610;2024-01-30T14:44:12;13.70;;;6.28;;
25319;SDS011;13256;49.012;8.610;2024-01-30T14:46:47;17.20;;;7.57;;
25319;SDS011;13256;49.012;8.610;2024-01-30T14:49:14;24.35;;;9.13;;
25319;SDS011;13256;49.012;8.610;2024-01-30T14:51:42;15.70;;;8.07;;
25319;SDS011;13256;49.012;8.610;2024-01-30T14:54:09;41.20;;;18.88;;
25319;SDS011;13256;49.012;8.610;2024-01-30T14:56:39;35.63;;;17.98;;
25319;SDS011;13256;49.012;8.610;2024-01-30T14:59:08;20.08;;;10.48;;
25319;SDS011;13256;49.012;8.610;2024-01-30T15:01:35;20.25;;;10.90;;
25319;SDS011;13256;49.012;8.610;2024-01-30T15:04:04;22.13;;;9.90;;
25319;SDS011;13256;49.012;8.610;2024-01-30T15:06:31;15.13;;;8.32;;
25319;SDS011;13256;49.012;8.610;2024-01-30T15:08:59;16.58;;;9.00;;
25319;SDS011;13256;49.012;8.610;2024-01-30T15:11:27;17.23;;;7.50;;
25319;SDS011;13256;49.012;8.610;2024-01-30T15:14:03;14.75;;;7.85;;
25319;SDS011;13256;49.012;8.610;2024-01-30T15:19:01;17.23;;;9.77;;
25319;SDS011;13256;49.012;8.610;2024-01-30T15:24:13;18.67;;;8.98;;
25319;SDS011;13256;49.012;8.610;2024-01-30T15:29:12;17.08;;;8.35;;
25319;SDS011;13256;49.012;8.610;2024-01-30T15:31:42;20.67;;;9.30;;
25319;SDS011;13256;49.012;8.610;2024-01-30T15:34:09;18.52;;;9.40;;
25319;SDS011;13256;49.012;8.610;2024-01-30T15:39:32;19.30;;;10.05;;
25319;SDS011;13256;49.012;8.610;2024-01-30T15:41:59;19.90;;;10.40;;
25319;SDS011;13256;49.012;8.610;2024-01-30T15:44:27;17.83;;;9.48;;
25319;SDS011;13256;49.012;8.610;2024-01-30T15:47:01;13.73;;;7.45;;
25319;SDS011;13256;49.012;8.610;2024-01-30T15:49:28;19.55;;;10.35;;
25319;SDS011;13256;49.012;8.610;2024-01-30T15:51:57;22.27;;;10.15;;
25319;SDS011;13256;49.012;8.610;2024-01-30T15:54:25;20.38;;;10.50;;
25319;SDS011;13256;49.012;8.610;2024-01-30T15:56:51;18.38;;;9.82;;
25319;SDS011;13256;49.012;8.610;2024-01-30T15:59:21;19.33;;;9.75;;
25319;SDS011;13256;49.012;8.610;2024-01-30T16:01:49;21.42;;;10.43;;
25319;SDS011;13256;49.012;8.610;2024-01-30T16:04:16;20.55;;;10.50;;
25319;SDS011;13256;49.012;8.610;2024-01-30T16:06:48;22.17;;;10.57;;
25319;SDS011;13256;49.012;8.610;2024-01-30T16:09:24;18.95;;;9.57;;
25319;SDS011;13256;49.012;8.610;2024-01-30T16:11:55;18.75;;;10.43;;
25319;SDS011;13256;49.012;8.610;2024-01-30T16:14:23;21.83;;;10.40;;
25319;SDS011;13256;49.012;8.610;2024-01-30T16:16:51;18.08;;;10.10;;
25319;SDS011;13256;49.012;8.610;2024-01-30T16:19:21;16.70;;;9.55;;
25319;SDS011;13256;49.012;8.610;2024-01-30T16:21:55;15.43;;;9.20;;
25319;SDS011;13256;49.012;8.610;2024-01-30T16:24:28;19.42;;;10.88;;
25319;SDS011;13256;49.012;8.610;2024-01-30T16:26:55;20.60;;;10.00;;
25319;SDS011;13256;49.012;8.610;2024-01-30T16:29:23;21.17;;;10.20;;
25319;SDS011;13256;49.012;8.610;2024-01-30T16:31:53;30.73;;;14.65;;
25319;SDS011;13256;49.012;8.610;2024-01-30T16:34:20;27.42;;;13.18;;
25319;SDS011;13256;49.012;8.610;2024-01-30T16:36:47;37.33;;;17.27;;
25319;SDS011;13256;49.012;8.610;2024-01-30T16:39:16;35.00;;;15.95;;
25319;SDS011;13256;49.012;8.610;2024-01-30T16:41:46;34.70;;;17.02;;
25319;SDS011;13256;49.012;8.610;2024-01-30T16:44:17;46.65;;;18.90;;
25319;SDS011;13256;49.012;8.610;2024-01-30T16:46:50;40.05;;;18.17;;
25319;SDS011;13256;49.012;8.610;2024-01-30T16:49:23;39.20;;;17.40;;
25319;SDS011;13256;49.012;8.610;2024-01-30T16:51:54;42.30;;;18.98;;
25319;SDS011;13256;49.012;8.610;2024-01-30T16:54:21;43.42;;;18.98;;
25319;SDS011;13256;49.012;8.610;2024-01-30T16:56:50;38.92;;;18.58;;
25319;SDS011;13256;49.012;8.610;2024-01-30T16:59:17;40.47;;;19.27;;
25319;SDS011;13256;49.012;8.610;2024-01-30T17:01:47;41.67;;;19.35;;
25319;SDS011;13256;49.012;8.610;2024-01-30T17:04:50;38.58;;;17.95;;
25319;SDS011;13256;49.012;8.610;2024-01-30T17:07:59;38.13;;;20.08;;
25319;SDS011;13256;49.012;8.610;2024-01-30T17:10:27;41.80;;;19.90;;
25319;SDS011;13256;49.012;8.610;2024-01-30T17:12:54;58.65;;;26.88;;
25319;SDS011;13256;49.012;8.610;2024-01-30T17:15:21;56.60;;;27.40;;
25319;SDS011;13256;49.012;8.610;2024-01-30T17:17:48;51.33;;;27.40;;
25319;SDS011;13256;49.012;8.610;2024-01-30T17:20:17;52.80;;;28.27;;
25319;SDS011;13256;49.012;8.610;2024-01-30T17:22:47;46.70;;;24.30;;
25319;SDS011;13256;49.012;8.610;2024-01-30T17:25:15;55.50;;;26.25;;
25319;SDS011;13256;49.012;8.610;2024-01-30T17:27:45;56.60;;;25.48;;
25319;SDS011;13256;49.012;8.610;2024-01-30T17:30:19;44.58;;;21.05;;
25319;SDS011;13256;49.012;8.610;2024-01-30T17:32:49;43.40;;;21.55;;
25319;SDS011;13256;49.012;8.610;2024-01-30T17:35:18;38.05;;;18.38;;
25319;SDS011;13256;49.012;8.610;2024-01-30T17:37:56;41.15;;;20.13;;
25319;SDS011;13256;49.012;8.610;2024-01-30T17:40:24;42.30;;;21.65;;
25319;SDS011;13256;49.012;8.610;2024-01-30T17:42:58;39.60;;;19.98;;
25319;SDS011;13256;49.012;8.610;2024-01-30T17:45:33;38.08;;;19.48;;
25319;SDS011;13256;49.012;8.610;2024-01-30T17:48:09;41.28;;;21.35;;
25319;SDS011;13256;49.012;8.610;2024-01-30T17:50:41;40.07;;;21.30;;
25319;SDS011;13256;49.012;8.610;2024-01-30T17:53:39;36.67;;;20.63;;
25319;SDS011;13256;49.012;8.610;2024-01-30T17:56:26;48.55;;;23.92;;
25319;SDS011;13256;49.012;8.610;2024-01-30T17:58:59;37.50;;;20.30;;
25319;SDS011;13256;49.012;8.610;2024-01-30T18:04:29;36.25;;;17.85;;
25319;SDS011;13256;49.012;8.610;2024-01-30T18:07:08;43.95;;;18.88;;
25319;SDS011;13256;49.012;8.610;2024-01-30T18:09:43;30.63;;;17.15;;
25319;SDS011;13256;49.012;8.610;2024-01-30T18:12:13;40.47;;;20.58;;
25319;SDS011;13256;49.012;8.610;2024-01-30T18:14:44;51.88;;;24.73;;
25319;SDS011;13256;49.012;8.610;2024-01-30T18:17:15;67.00;;;32.65;;
25319;SDS011;13256;49.012;8.610;2024-01-30T18:19:44;55.63;;;28.73;;
25319;SDS011;13256;49.012;8.610;2024-01-30T18:24:45;56.55;;;26.40;;
25319;SDS011;13256;49.012;8.610;2024-01-30T18:27:16;56.05;;;28.35;;
25319;SDS011;13256;49.012;8.610;2024-01-30T18:29:46;54.95;;;27.77;;
25319;SDS011;13256;49.012;8.610;2024-01-30T18:32:22;51.47;;;26.17;;
25319;SDS011;13256;49.012;8.610;2024-01-30T18:34:57;55.38;;;25.13;;
25319;SDS011;13256;49.012;8.610;2024-01-30T18:37:30;55.92;;;27.10;;
25319;SDS011;13256;49.012;8.610;2024-01-30T18:40:09;58.20;;;27.65;;
25319;SDS011;13256;49.012;8.610;2024-01-30T18:42:44;56.35;;;27.98;;
25319;SDS011;13256;49.012;8.610;2024-01-30T18:45:12;55.30;;;28.55;;
25319;SDS011;13256;49.012;8.610;2024-01-30T18:47:52;47.55;;;25.13;;
25319;SDS011;13256;49.012;8.610;2024-01-30T18:53:01;39.22;;;20.85;;
25319;SDS011;13256;49.012;8.610;2024-01-30T18:55:31;42.95;;;21.27;;
25319;SDS011;13256;49.012;8.610;2024-01-30T18:57:59;37.60;;;21.30;;
25319;SDS011;13256;49.012;8.610;2024-01-30T19:00:28;36.28;;;20.67;;
25319;SDS011;13256;49.012;8.610;2024-01-30T19:03:01;31.83;;;18.77;;
25319;SDS011;13256;49.012;8.610;2024-01-30T19:05:37;39.42;;;20.55;;
25319;SDS011;13256;49.012;8.610;2024-01-30T19:08:09;38.75;;;19.58;;
25319;SDS011;13256;49.012;8.610;2024-01-30T19:10:48;32.22;;;18.70;;
25319;SDS011;13256;49.012;8.610;2024-01-30T19:13:17;35.95;;;21.55;;
25319;SDS011;13256;49.012;8.610;2024-01-30T19:18:56;32.22;;;18.50;;
25319;SDS011;13256;49.012;8.610;2024-01-30T19:21:31;37.90;;;19.93;;
25319;SDS011;13256;49.012;8.610;2024-01-30T19:24:00;29.27;;;17.00;;
25319;SDS011;13256;49.012;8.610;2024-01-30T19:26:28;26.50;;;15.32;;
25319;SDS011;13256;49.012;8.610;2024-01-30T19:28:57;29.70;;;15.70;;
25319;SDS011;13256;49.012;8.610;2024-01-30T19:31:27;24.48;;;15.02;;
25319;SDS011;13256;49.012;8.610;2024-01-30T19:33:55;27.02;;;15.63;;
25319;SDS011;13256;49.012;8.610;2024-01-30T19:36:24;33.72;;;17.70;;
25319;SDS011;13256;49.012;8.610;2024-01-30T19:42:15;31.30;;;16.63;;
25319;SDS011;13256;49.012;8.610;2024-01-30T19:44:47;48.58;;;23.40;;
25319;SDS011;13256;49.012;8.610;2024-01-30T19:47:25;52.78;;;23.00;;
25319;SDS011;13256;49.012;8.610;2024-01-30T19:49:53;44.17;;;20.42;;